sensor_id;sensor_type;location;lat;lon;timestamp;temperature;humidity
22442;DHT22;11388;54.456;9.752;2022-08-05T00:00:35;19.00;99.90
22442;DHT22;11388;54.456;9.752;2022-08-05T00:03:01;18.90;99.90
22442;DHT22;11388;54.456;9.752;2022-08-05T00:05:27;18.80;99.90
22442;DHT22;11388;54.456;9.752;2022-08-05T00:07:52;18.70;99.90
22442;DHT22;11388;54.456;9.752;2022-08-05T00:10:18;18.80;99.90
22442;DHT22;11388;54.456;9.752;2022-08-05T00:12:44;18.80;99.90
22442;DHT22;11388;54.456;9.752;2022-08-05T00:15:10;18.70;99.90
22442;DHT22;11388;54.456;9.752;2022-08-05T00:17:35;18.60;99.90
22442;DHT22;11388;54.456;9.752;2022-08-05T00:20:01;18.70;99.90
22442;DHT22;11388;54.456;9.752;2022-08-05T00:22:28;18.80;99.90
22442;DHT22;11388;54.456;9.752;2022-08-05T00:24:54;18.90;99.90
22442;DHT22;11388;54.456;9.752;2022-08-05T00:27:20;18.90;99.90
22442;DHT22;11388;54.456;9.752;2022-08-05T00:29:46;18.80;99.90
22442;DHT22;11388;54.456;9.752;2022-08-05T00:32:11;18.80;99.90
22442;DHT22;11388;54.456;9.752;2022-08-05T00:34:44;18.70;99.90
22442;DHT22;11388;54.456;9.752;2022-08-05T00:37:10;18.60;99.90
22442;DHT22;11388;54.456;9.752;2022-08-05T00:39:35;18.50;99.90
22442;DHT22;11388;54.456;9.752;2022-08-05T00:42:01;18.50;99.90
22442;DHT22;11388;54.456;9.752;2022-08-05T00:44:27;18.40;99.90
22442;DHT22;11388;54.456;9.752;2022-08-05T00:46:53;18.50;99.90
22442;DHT22;11388;54.456;9.752;2022-08-05T00:49:18;18.40;99.90
22442;DHT22;11388;54.456;9.752;2022-08-05T00:51:45;18.40;99.90
22442;DHT22;11388;54.456;9.752;2022-08-05T00:54:12;18.60;99.90
22442;DHT22;11388;54.456;9.752;2022-08-05T00:56:38;18.60;99.90
22442;DHT22;11388;54.456;9.752;2022-08-05T00:59:04;18.70;99.90
22442;DHT22;11388;54.456;9.752;2022-08-05T01:01:30;18.80;99.90
22442;DHT22;11388;54.456;9.752;2022-08-05T01:03:56;18.80;99.90
22442;DHT22;11388;54.456;9.752;2022-08-05T01:06:22;18.70;99.90
22442;DHT22;11388;54.456;9.752;2022-08-05T01:08:48;18.70;99.90
22442;DHT22;11388;54.456;9.752;2022-08-05T01:11:35;18.60;99.90
22442;DHT22;11388;54.456;9.752;2022-08-05T01:17:02;18.50;99.90
22442;DHT22;11388;54.456;9.752;2022-08-05T01:31:08;18.60;99.90
22442;DHT22;11388;54.456;9.752;2022-08-05T01:33:43;18.60;99.90
22442;DHT22;11388;54.456;9.752;2022-08-05T01:36:12;18.60;99.90
22442;DHT22;11388;54.456;9.752;2022-08-05T01:38:40;18.60;99.90
22442;DHT22;11388;54.456;9.752;2022-08-05T01:41:06;18.60;99.90
22442;DHT22;11388;54.456;9.752;2022-08-05T01:43:34;18.70;99.90
22442;DHT22;11388;54.456;9.752;2022-08-05T01:46:00;18.60;99.90
22442;DHT22;11388;54.456;9.752;2022-08-05T01:48:27;18.50;99.90
22442;DHT22;11388;54.456;9.752;2022-08-05T01:50:55;18.50;99.90
22442;DHT22;11388;54.456;9.752;2022-08-05T01:53:22;18.50;99.90
22442;DHT22;11388;54.456;9.752;2022-08-05T01:55:50;18.50;99.90
22442;DHT22;11388;54.456;9.752;2022-08-05T01:58:18;18.60;99.90
22442;DHT22;11388;54.456;9.752;2022-08-05T02:00:50;18.50;99.90
22442;DHT22;11388;54.456;9.752;2022-08-05T02:03:24;18.40;99.90
22442;DHT22;11388;54.456;9.752;2022-08-05T02:05:53;18.30;99.90
22442;DHT22;11388;54.456;9.752;2022-08-05T02:08:20;18.30;99.90
22442;DHT22;11388;54.456;9.752;2022-08-05T02:11:01;18.30;99.90
22442;DHT22;11388;54.456;9.752;2022-08-05T02:13:37;18.40;99.90
22442;DHT22;11388;54.456;9.752;2022-08-05T02:16:19;18.50;99.90
22442;DHT22;11388;54.456;9.752;2022-08-05T02:19:09;18.40;99.90
22442;DHT22;11388;54.456;9.752;2022-08-05T02:21:44;18.40;99.90
22442;DHT22;11388;54.456;9.752;2022-08-05T02:24:16;18.50;99.90
22442;DHT22;11388;54.456;9.752;2022-08-05T02:26:48;18.50;99.90
22442;DHT22;11388;54.456;9.752;2022-08-05T02:29:18;18.40;99.90
22442;DHT22;11388;54.456;9.752;2022-08-05T02:31:46;18.30;99.90
22442;DHT22;11388;54.456;9.752;2022-08-05T02:34:13;18.40;99.90
22442;DHT22;11388;54.456;9.752;2022-08-05T02:36:43;18.40;99.90
22442;DHT22;11388;54.456;9.752;2022-08-05T02:39:11;18.50;99.90
22442;DHT22;11388;54.456;9.752;2022-08-05T02:41:38;18.60;99.90
22442;DHT22;11388;54.456;9.752;2022-08-05T02:44:09;18.50;99.90
22442;DHT22;11388;54.456;9.752;2022-08-05T02:46:38;18.60;99.90
22442;DHT22;11388;54.456;9.752;2022-08-05T02:49:05;18.40;99.90
22442;DHT22;11388;54.456;9.752;2022-08-05T02:51:33;18.30;99.90
22442;DHT22;11388;54.456;9.752;2022-08-05T02:53:59;18.30;99.90
22442;DHT22;11388;54.456;9.752;2022-08-05T02:56:27;18.40;99.90
22442;DHT22;11388;54.456;9.752;2022-08-05T02:58:53;18.30;99.90
22442;DHT22;11388;54.456;9.752;2022-08-05T03:01:23;18.30;99.90
22442;DHT22;11388;54.456;9.752;2022-08-05T03:03:53;18.30;99.90
22442;DHT22;11388;54.456;9.752;2022-08-05T03:06:20;18.20;99.90
22442;DHT22;11388;54.456;9.752;2022-08-05T03:08:46;18.30;99.90
22442;DHT22;11388;54.456;9.752;2022-08-05T03:11:23;18.20;99.90
22442;DHT22;11388;54.456;9.752;2022-08-05T03:13:50;18.30;99.90
22442;DHT22;11388;54.456;9.752;2022-08-05T03:16:16;18.30;99.90
22442;DHT22;11388;54.456;9.752;2022-08-05T03:18:42;18.40;99.90
22442;DHT22;11388;54.456;9.752;2022-08-05T03:21:08;18.30;99.90
22442;DHT22;11388;54.456;9.752;2022-08-05T03:23:34;18.20;99.90
22442;DHT22;11388;54.456;9.752;2022-08-05T03:26:02;18.20;99.90
22442;DHT22;11388;54.456;9.752;2022-08-05T03:28:29;18.20;99.90
22442;DHT22;11388;54.456;9.752;2022-08-05T03:30:56;18.10;99.90
22442;DHT22;11388;54.456;9.752;2022-08-05T03:33:23;18.10;99.90
22442;DHT22;11388;54.456;9.752;2022-08-05T03:35:49;18.20;99.90
22442;DHT22;11388;54.456;9.752;2022-08-05T03:38:15;18.10;99.90
22442;DHT22;11388;54.456;9.752;2022-08-05T03:40:42;18.10;99.90
22442;DHT22;11388;54.456;9.752;2022-08-05T03:43:08;18.00;99.90
22442;DHT22;11388;54.456;9.752;2022-08-05T03:45:34;17.90;99.90
22442;DHT22;11388;54.456;9.752;2022-08-05T03:48:00;17.80;99.90
22442;DHT22;11388;54.456;9.752;2022-08-05T03:50:52;17.80;99.90
22442;DHT22;11388;54.456;9.752;2022-08-05T03:53:33;17.80;99.90
22442;DHT22;11388;54.456;9.752;2022-08-05T03:56:16;17.70;99.90
22442;DHT22;11388;54.456;9.752;2022-08-05T03:58:45;18.00;99.90
22442;DHT22;11388;54.456;9.752;2022-08-05T04:01:13;17.90;99.90
22442;DHT22;11388;54.456;9.752;2022-08-05T04:03:43;17.90;99.90
22442;DHT22;11388;54.456;9.752;2022-08-05T04:06:10;18.00;99.90
22442;DHT22;11388;54.456;9.752;2022-08-05T04:08:36;18.10;99.90
22442;DHT22;11388;54.456;9.752;2022-08-05T04:11:17;18.10;99.90
22442;DHT22;11388;54.456;9.752;2022-08-05T04:13:44;18.10;99.90
22442;DHT22;11388;54.456;9.752;2022-08-05T04:16:12;18.00;99.90
22442;DHT22;11388;54.456;9.752;2022-08-05T04:18:38;18.00;99.90
22442;DHT22;11388;54.456;9.752;2022-08-05T04:21:05;18.00;99.90
22442;DHT22;11388;54.456;9.752;2022-08-05T04:23:33;17.90;99.90
22442;DHT22;11388;54.456;9.752;2022-08-05T04:25:58;17.80;99.90
22442;DHT22;11388;54.456;9.752;2022-08-05T04:28:24;17.90;99.90
22442;DHT22;11388;54.456;9.752;2022-08-05T04:30:50;17.90;99.90
22442;DHT22;11388;54.456;9.752;2022-08-05T04:33:16;17.80;99.90
22442;DHT22;11388;54.456;9.752;2022-08-05T04:35:42;17.80;99.90
22442;DHT22;11388;54.456;9.752;2022-08-05T04:38:09;17.80;99.90
22442;DHT22;11388;54.456;9.752;2022-08-05T04:40:36;17.70;99.90
22442;DHT22;11388;54.456;9.752;2022-08-05T04:43:03;17.70;99.90
22442;DHT22;11388;54.456;9.752;2022-08-05T04:45:29;17.70;99.90
22442;DHT22;11388;54.456;9.752;2022-08-05T04:48:04;17.70;99.90
22442;DHT22;11388;54.456;9.752;2022-08-05T04:50:31;17.60;99.90
22442;DHT22;11388;54.456;9.752;2022-08-05T04:53:02;17.60;99.90
22442;DHT22;11388;54.456;9.752;2022-08-05T04:55:28;17.50;99.90
22442;DHT22;11388;54.456;9.752;2022-08-05T04:57:53;17.50;99.90
22442;DHT22;11388;54.456;9.752;2022-08-05T05:00:19;17.60;99.90
22442;DHT22;11388;54.456;9.752;2022-08-05T05:02:45;17.60;99.90
22442;DHT22;11388;54.456;9.752;2022-08-05T05:05:10;17.70;99.90
22442;DHT22;11388;54.456;9.752;2022-08-05T05:07:36;17.80;99.90
22442;DHT22;11388;54.456;9.752;2022-08-05T05:10:02;17.80;99.90
22442;DHT22;11388;54.456;9.752;2022-08-05T05:12:29;17.80;99.90
22442;DHT22;11388;54.456;9.752;2022-08-05T05:14:55;17.90;99.90
22442;DHT22;11388;54.456;9.752;2022-08-05T05:17:21;17.90;99.90
22442;DHT22;11388;54.456;9.752;2022-08-05T05:19:46;17.80;99.90
22442;DHT22;11388;54.456;9.752;2022-08-05T05:22:12;18.00;99.90
22442;DHT22;11388;54.456;9.752;2022-08-05T05:24:38;18.10;99.90
22442;DHT22;11388;54.456;9.752;2022-08-05T05:27:04;18.20;99.90
22442;DHT22;11388;54.456;9.752;2022-08-05T05:29:30;18.10;99.90
22442;DHT22;11388;54.456;9.752;2022-08-05T05:31:55;18.10;99.90
22442;DHT22;11388;54.456;9.752;2022-08-05T05:34:22;18.30;99.90
22442;DHT22;11388;54.456;9.752;2022-08-05T05:36:47;18.20;99.90
22442;DHT22;11388;54.456;9.752;2022-08-05T05:39:13;18.20;99.90
22442;DHT22;11388;54.456;9.752;2022-08-05T05:41:39;18.00;99.90
22442;DHT22;11388;54.456;9.752;2022-08-05T05:44:05;18.10;99.90
22442;DHT22;11388;54.456;9.752;2022-08-05T05:46:30;18.10;99.90
22442;DHT22;11388;54.456;9.752;2022-08-05T05:48:56;18.10;99.90
22442;DHT22;11388;54.456;9.752;2022-08-05T05:51:23;18.10;99.90
22442;DHT22;11388;54.456;9.752;2022-08-05T05:53:51;18.30;99.90
22442;DHT22;11388;54.456;9.752;2022-08-05T05:56:17;18.20;99.90
22442;DHT22;11388;54.456;9.752;2022-08-05T05:58:45;18.20;99.90
22442;DHT22;11388;54.456;9.752;2022-08-05T06:01:13;18.20;99.90
22442;DHT22;11388;54.456;9.752;2022-08-05T06:03:40;18.20;99.90
22442;DHT22;11388;54.456;9.752;2022-08-05T06:06:06;18.10;99.90
22442;DHT22;11388;54.456;9.752;2022-08-05T06:08:32;18.10;99.90
22442;DHT22;11388;54.456;9.752;2022-08-05T06:10:58;18.10;99.90
22442;DHT22;11388;54.456;9.752;2022-08-05T06:13:24;18.10;99.90
22442;DHT22;11388;54.456;9.752;2022-08-05T06:15:49;18.30;99.90
22442;DHT22;11388;54.456;9.752;2022-08-05T06:18:15;18.40;99.90
22442;DHT22;11388;54.456;9.752;2022-08-05T06:20:44;18.50;99.90
22442;DHT22;11388;54.456;9.752;2022-08-05T06:23:12;18.50;99.90
22442;DHT22;11388;54.456;9.752;2022-08-05T06:25:38;18.80;99.90
22442;DHT22;11388;54.456;9.752;2022-08-05T06:28:04;18.70;99.90
22442;DHT22;11388;54.456;9.752;2022-08-05T06:30:30;18.80;99.90
22442;DHT22;11388;54.456;9.752;2022-08-05T06:32:55;18.90;99.90
22442;DHT22;11388;54.456;9.752;2022-08-05T06:35:21;19.00;99.90
22442;DHT22;11388;54.456;9.752;2022-08-05T06:37:50;19.00;99.90
22442;DHT22;11388;54.456;9.752;2022-08-05T06:40:21;19.00;99.90
22442;DHT22;11388;54.456;9.752;2022-08-05T06:42:48;19.20;99.90
22442;DHT22;11388;54.456;9.752;2022-08-05T06:45:14;19.10;99.90
22442;DHT22;11388;54.456;9.752;2022-08-05T06:47:40;19.20;99.90
22442;DHT22;11388;54.456;9.752;2022-08-05T06:50:06;19.20;99.90
22442;DHT22;11388;54.456;9.752;2022-08-05T06:52:35;19.20;99.90
22442;DHT22;11388;54.456;9.752;2022-08-05T06:55:11;19.00;99.90
22442;DHT22;11388;54.456;9.752;2022-08-05T06:57:36;19.10;99.90
22442;DHT22;11388;54.456;9.752;2022-08-05T07:00:03;19.10;99.90
22442;DHT22;11388;54.456;9.752;2022-08-05T07:02:29;19.00;99.90
22442;DHT22;11388;54.456;9.752;2022-08-05T07:04:55;19.20;99.90
22442;DHT22;11388;54.456;9.752;2022-08-05T07:07:21;19.00;99.90
22442;DHT22;11388;54.456;9.752;2022-08-05T07:09:46;18.80;99.90
22442;DHT22;11388;54.456;9.752;2022-08-05T07:12:19;18.90;99.90
22442;DHT22;11388;54.456;9.752;2022-08-05T07:15:04;18.90;99.90
22442;DHT22;11388;54.456;9.752;2022-08-05T07:17:49;18.80;99.90
22442;DHT22;11388;54.456;9.752;2022-08-05T07:20:14;18.80;99.90
22442;DHT22;11388;54.456;9.752;2022-08-05T07:22:40;19.00;99.90
22442;DHT22;11388;54.456;9.752;2022-08-05T07:25:09;18.90;99.90
22442;DHT22;11388;54.456;9.752;2022-08-05T07:27:34;18.90;99.90
22442;DHT22;11388;54.456;9.752;2022-08-05T07:30:00;18.90;99.90
22442;DHT22;11388;54.456;9.752;2022-08-05T07:32:26;18.80;99.90
22442;DHT22;11388;54.456;9.752;2022-08-05T07:34:51;18.90;99.90
22442;DHT22;11388;54.456;9.752;2022-08-05T07:37:18;18.90;99.90
22442;DHT22;11388;54.456;9.752;2022-08-05T07:39:44;19.00;99.90
22442;DHT22;11388;54.456;9.752;2022-08-05T07:42:09;18.90;99.90
22442;DHT22;11388;54.456;9.752;2022-08-05T07:44:35;18.80;99.90
22442;DHT22;11388;54.456;9.752;2022-08-05T07:47:01;18.90;99.90
22442;DHT22;11388;54.456;9.752;2022-08-05T07:49:26;18.70;99.90
22442;DHT22;11388;54.456;9.752;2022-08-05T07:52:24;18.70;99.90
22442;DHT22;11388;54.456;9.752;2022-08-05T07:54:50;18.70;99.90
22442;DHT22;11388;54.456;9.752;2022-08-05T07:57:16;18.70;99.90
22442;DHT22;11388;54.456;9.752;2022-08-05T07:59:41;18.70;99.90
22442;DHT22;11388;54.456;9.752;2022-08-05T08:05:29;18.80;99.90
22442;DHT22;11388;54.456;9.752;2022-08-05T08:07:55;19.00;99.90
22442;DHT22;11388;54.456;9.752;2022-08-05T08:10:22;19.00;99.90
22442;DHT22;11388;54.456;9.752;2022-08-05T08:12:50;19.10;99.90
22442;DHT22;11388;54.456;9.752;2022-08-05T08:15:16;19.00;99.90
22442;DHT22;11388;54.456;9.752;2022-08-05T08:17:43;19.00;99.90
22442;DHT22;11388;54.456;9.752;2022-08-05T08:20:09;19.20;99.90
22442;DHT22;11388;54.456;9.752;2022-08-05T08:22:35;19.30;99.90
22442;DHT22;11388;54.456;9.752;2022-08-05T08:25:01;19.20;99.90
22442;DHT22;11388;54.456;9.752;2022-08-05T08:27:27;19.40;99.90
22442;DHT22;11388;54.456;9.752;2022-08-05T08:29:53;19.40;99.90
22442;DHT22;11388;54.456;9.752;2022-08-05T08:32:21;19.40;99.90
22442;DHT22;11388;54.456;9.752;2022-08-05T08:34:52;19.50;99.90
22442;DHT22;11388;54.456;9.752;2022-08-05T08:37:23;19.50;99.90
22442;DHT22;11388;54.456;9.752;2022-08-05T08:39:54;19.60;99.90
22442;DHT22;11388;54.456;9.752;2022-08-05T08:42:27;19.60;99.90
22442;DHT22;11388;54.456;9.752;2022-08-05T08:45:07;19.70;99.90
22442;DHT22;11388;54.456;9.752;2022-08-05T08:47:34;19.70;99.90
22442;DHT22;11388;54.456;9.752;2022-08-05T08:50:02;19.90;99.90
22442;DHT22;11388;54.456;9.752;2022-08-05T08:52:34;19.90;99.90
22442;DHT22;11388;54.456;9.752;2022-08-05T08:55:02;19.90;99.90
22442;DHT22;11388;54.456;9.752;2022-08-05T08:57:28;19.70;99.90
22442;DHT22;11388;54.456;9.752;2022-08-05T09:00:05;19.80;99.90
22442;DHT22;11388;54.456;9.752;2022-08-05T09:02:47;19.70;99.90
22442;DHT22;11388;54.456;9.752;2022-08-05T09:05:13;19.80;99.90
22442;DHT22;11388;54.456;9.752;2022-08-05T09:07:42;19.90;99.90
22442;DHT22;11388;54.456;9.752;2022-08-05T09:10:13;19.90;99.90
22442;DHT22;11388;54.456;9.752;2022-08-05T09:12:52;20.10;99.90
22442;DHT22;11388;54.456;9.752;2022-08-05T09:15:41;20.10;99.90
22442;DHT22;11388;54.456;9.752;2022-08-05T09:18:13;20.10;99.90
22442;DHT22;11388;54.456;9.752;2022-08-05T09:21:05;20.10;99.90
22442;DHT22;11388;54.456;9.752;2022-08-05T09:23:50;20.10;99.90
22442;DHT22;11388;54.456;9.752;2022-08-05T09:26:41;20.00;99.90
22442;DHT22;11388;54.456;9.752;2022-08-05T09:36:16;20.30;99.90
22442;DHT22;11388;54.456;9.752;2022-08-05T09:45:41;20.70;99.90
22442;DHT22;11388;54.456;9.752;2022-08-05T09:48:53;20.90;99.90
22442;DHT22;11388;54.456;9.752;2022-08-05T09:51:38;20.70;99.90
22442;DHT22;11388;54.456;9.752;2022-08-05T09:57:02;20.70;99.90
22442;DHT22;11388;54.456;9.752;2022-08-05T09:59:36;20.80;99.90
22442;DHT22;11388;54.456;9.752;2022-08-05T10:02:12;20.60;99.90
22442;DHT22;11388;54.456;9.752;2022-08-05T10:04:38;20.40;99.90
22442;DHT22;11388;54.456;9.752;2022-08-05T10:07:05;20.40;99.90
22442;DHT22;11388;54.456;9.752;2022-08-05T10:09:32;20.50;99.90
22442;DHT22;11388;54.456;9.752;2022-08-05T10:12:17;20.40;99.90
22442;DHT22;11388;54.456;9.752;2022-08-05T10:14:43;20.50;99.90
22442;DHT22;11388;54.456;9.752;2022-08-05T10:17:14;20.70;99.90
22442;DHT22;11388;54.456;9.752;2022-08-05T10:19:40;21.00;99.90
22442;DHT22;11388;54.456;9.752;2022-08-05T10:22:09;20.90;99.90
22442;DHT22;11388;54.456;9.752;2022-08-05T10:24:35;21.10;99.90
22442;DHT22;11388;54.456;9.752;2022-08-05T10:27:02;21.20;99.90
22442;DHT22;11388;54.456;9.752;2022-08-05T10:29:27;21.30;99.90
22442;DHT22;11388;54.456;9.752;2022-08-05T10:31:57;21.30;99.90
22442;DHT22;11388;54.456;9.752;2022-08-05T10:34:23;21.30;99.90
22442;DHT22;11388;54.456;9.752;2022-08-05T10:36:49;20.80;99.90
22442;DHT22;11388;54.456;9.752;2022-08-05T10:39:18;20.80;99.90
22442;DHT22;11388;54.456;9.752;2022-08-05T10:44:47;20.80;99.90
22442;DHT22;11388;54.456;9.752;2022-08-05T10:47:14;20.70;99.90
22442;DHT22;11388;54.456;9.752;2022-08-05T10:50:16;20.60;99.90
22442;DHT22;11388;54.456;9.752;2022-08-05T10:52:45;20.40;99.90
22442;DHT22;11388;54.456;9.752;2022-08-05T10:55:25;20.30;99.90
22442;DHT22;11388;54.456;9.752;2022-08-05T10:58:08;20.40;99.90
22442;DHT22;11388;54.456;9.752;2022-08-05T11:00:36;20.50;99.90
22442;DHT22;11388;54.456;9.752;2022-08-05T11:05:32;20.40;99.90
22442;DHT22;11388;54.456;9.752;2022-08-05T11:08:00;20.40;99.90
22442;DHT22;11388;54.456;9.752;2022-08-05T11:10:31;20.40;99.90
22442;DHT22;11388;54.456;9.752;2022-08-05T11:12:58;20.40;99.90
22442;DHT22;11388;54.456;9.752;2022-08-05T11:15:25;20.50;99.90
22442;DHT22;11388;54.456;9.752;2022-08-05T11:18:22;20.50;99.90
22442;DHT22;11388;54.456;9.752;2022-08-05T11:20:55;20.50;99.90
22442;DHT22;11388;54.456;9.752;2022-08-05T11:23:35;20.80;99.90
22442;DHT22;11388;54.456;9.752;2022-08-05T11:26:19;20.90;99.90
22442;DHT22;11388;54.456;9.752;2022-08-05T11:29:01;20.80;99.90
22442;DHT22;11388;54.456;9.752;2022-08-05T11:31:34;20.60;99.90
22442;DHT22;11388;54.456;9.752;2022-08-05T11:34:04;20.60;99.90
22442;DHT22;11388;54.456;9.752;2022-08-05T11:52:13;20.00;99.90
22442;DHT22;11388;54.456;9.752;2022-08-05T11:55:10;20.10;99.90
22442;DHT22;11388;54.456;9.752;2022-08-05T11:57:50;20.30;99.90
22442;DHT22;11388;54.456;9.752;2022-08-05T12:04:38;20.80;99.90
22442;DHT22;11388;54.456;9.752;2022-08-05T12:07:01;20.90;99.90
22442;DHT22;11388;54.456;9.752;2022-08-05T12:13:01;21.10;99.90
22442;DHT22;11388;54.456;9.752;2022-08-05T12:15:30;20.60;99.90
22442;DHT22;11388;54.456;9.752;2022-08-05T12:18:11;20.50;99.90
22442;DHT22;11388;54.456;9.752;2022-08-05T12:20:41;20.40;99.90
22442;DHT22;11388;54.456;9.752;2022-08-05T12:23:10;20.40;99.90
22442;DHT22;11388;54.456;9.752;2022-08-05T12:25:58;20.40;99.90
22442;DHT22;11388;54.456;9.752;2022-08-05T12:31:14;20.50;99.90
22442;DHT22;11388;54.456;9.752;2022-08-05T12:44:38;22.80;99.90
22442;DHT22;11388;54.456;9.752;2022-08-05T13:49:52;29.10;99.20
22442;DHT22;11388;54.456;9.752;2022-08-05T13:52:26;28.10;99.90
22442;DHT22;11388;54.456;9.752;2022-08-05T13:55:01;26.90;99.90
22442;DHT22;11388;54.456;9.752;2022-08-05T13:57:38;26.10;99.90
22442;DHT22;11388;54.456;9.752;2022-08-05T14:00:07;25.40;99.90
22442;DHT22;11388;54.456;9.752;2022-08-05T14:02:35;25.30;99.90
22442;DHT22;11388;54.456;9.752;2022-08-05T14:05:04;27.20;99.90
22442;DHT22;11388;54.456;9.752;2022-08-05T14:10:45;25.50;99.90
22442;DHT22;11388;54.456;9.752;2022-08-05T14:13:11;24.60;99.90
22442;DHT22;11388;54.456;9.752;2022-08-05T14:15:37;23.60;99.90
22442;DHT22;11388;54.456;9.752;2022-08-05T14:18:05;23.10;99.90
22442;DHT22;11388;54.456;9.752;2022-08-05T14:20:34;23.30;99.90
22442;DHT22;11388;54.456;9.752;2022-08-05T14:23:00;23.40;99.90
22442;DHT22;11388;54.456;9.752;2022-08-05T14:25:26;23.30;99.90
22442;DHT22;11388;54.456;9.752;2022-08-05T14:27:52;23.30;99.90
22442;DHT22;11388;54.456;9.752;2022-08-05T14:30:18;23.20;99.90
22442;DHT22;11388;54.456;9.752;2022-08-05T14:32:44;23.10;99.90
22442;DHT22;11388;54.456;9.752;2022-08-05T14:35:16;23.10;99.90
22442;DHT22;11388;54.456;9.752;2022-08-05T14:37:44;22.80;99.90
22442;DHT22;11388;54.456;9.752;2022-08-05T14:40:10;22.40;99.90
22442;DHT22;11388;54.456;9.752;2022-08-05T14:42:36;21.90;99.90
22442;DHT22;11388;54.456;9.752;2022-08-05T14:45:02;22.00;99.90
22442;DHT22;11388;54.456;9.752;2022-08-05T14:47:36;22.10;99.90
22442;DHT22;11388;54.456;9.752;2022-08-05T14:50:40;22.30;99.90
22442;DHT22;11388;54.456;9.752;2022-08-05T14:53:32;22.60;99.90
22442;DHT22;11388;54.456;9.752;2022-08-05T14:56:30;22.90;99.90
22442;DHT22;11388;54.456;9.752;2022-08-05T14:59:04;23.10;99.90
22442;DHT22;11388;54.456;9.752;2022-08-05T15:01:53;22.10;99.90
22442;DHT22;11388;54.456;9.752;2022-08-05T15:04:20;22.20;99.90
22442;DHT22;11388;54.456;9.752;2022-08-05T15:06:47;21.90;99.90
22442;DHT22;11388;54.456;9.752;2022-08-05T15:09:34;21.80;99.90
22442;DHT22;11388;54.456;9.752;2022-08-05T15:12:00;21.30;99.90
22442;DHT22;11388;54.456;9.752;2022-08-05T15:14:26;21.00;99.90
22442;DHT22;11388;54.456;9.752;2022-08-05T15:16:52;20.70;99.90
22442;DHT22;11388;54.456;9.752;2022-08-05T15:19:17;20.80;99.90
22442;DHT22;11388;54.456;9.752;2022-08-05T15:21:43;20.60;99.90
22442;DHT22;11388;54.456;9.752;2022-08-05T15:24:11;20.80;99.90
22442;DHT22;11388;54.456;9.752;2022-08-05T15:27:01;21.10;99.90
22442;DHT22;11388;54.456;9.752;2022-08-05T15:29:27;21.50;99.90
22442;DHT22;11388;54.456;9.752;2022-08-05T15:34:51;21.50;99.90
22442;DHT22;11388;54.456;9.752;2022-08-05T15:37:17;21.10;99.90
22442;DHT22;11388;54.456;9.752;2022-08-05T15:39:42;20.60;99.90
22442;DHT22;11388;54.456;9.752;2022-08-05T15:42:28;20.60;99.90
22442;DHT22;11388;54.456;9.752;2022-08-05T15:48:15;20.60;99.90
22442;DHT22;11388;54.456;9.752;2022-08-05T15:50:41;20.40;99.90
22442;DHT22;11388;54.456;9.752;2022-08-05T15:53:07;20.30;99.90
22442;DHT22;11388;54.456;9.752;2022-08-05T15:55:47;20.10;99.90
22442;DHT22;11388;54.456;9.752;2022-08-05T15:58:13;20.10;99.90
22442;DHT22;11388;54.456;9.752;2022-08-05T16:00:51;19.90;99.90
22442;DHT22;11388;54.456;9.752;2022-08-05T16:03:17;19.80;99.90
22442;DHT22;11388;54.456;9.752;2022-08-05T16:05:43;19.80;99.90
22442;DHT22;11388;54.456;9.752;2022-08-05T16:08:09;19.90;99.90
22442;DHT22;11388;54.456;9.752;2022-08-05T16:10:35;20.00;99.90
22442;DHT22;11388;54.456;9.752;2022-08-05T16:13:00;20.10;99.90
22442;DHT22;11388;54.456;9.752;2022-08-05T16:15:26;20.00;99.90
22442;DHT22;11388;54.456;9.752;2022-08-05T16:17:52;19.80;99.90
22442;DHT22;11388;54.456;9.752;2022-08-05T16:20:19;19.20;99.90
22442;DHT22;11388;54.456;9.752;2022-08-05T16:22:45;19.00;99.90
22442;DHT22;11388;54.456;9.752;2022-08-05T16:25:13;18.90;99.90
22442;DHT22;11388;54.456;9.752;2022-08-05T16:27:42;18.80;99.90
22442;DHT22;11388;54.456;9.752;2022-08-05T16:30:13;18.70;99.90
22442;DHT22;11388;54.456;9.752;2022-08-05T16:32:39;19.40;99.90
22442;DHT22;11388;54.456;9.752;2022-08-05T16:35:08;19.50;99.90
22442;DHT22;11388;54.456;9.752;2022-08-05T16:37:34;19.70;99.90
22442;DHT22;11388;54.456;9.752;2022-08-05T16:40:02;19.60;99.90
22442;DHT22;11388;54.456;9.752;2022-08-05T16:42:31;19.70;99.90
22442;DHT22;11388;54.456;9.752;2022-08-05T16:45:06;19.40;99.90
22442;DHT22;11388;54.456;9.752;2022-08-05T16:47:35;19.40;99.90
22442;DHT22;11388;54.456;9.752;2022-08-05T16:50:02;19.50;99.90
22442;DHT22;11388;54.456;9.752;2022-08-05T16:52:39;19.40;99.90
22442;DHT22;11388;54.456;9.752;2022-08-05T16:55:10;19.50;99.90
22442;DHT22;11388;54.456;9.752;2022-08-05T16:57:36;19.30;99.90
22442;DHT22;11388;54.456;9.752;2022-08-05T17:00:13;19.70;99.90
22442;DHT22;11388;54.456;9.752;2022-08-05T17:02:42;20.00;99.90
22442;DHT22;11388;54.456;9.752;2022-08-05T17:05:13;20.20;99.90
22442;DHT22;11388;54.456;9.752;2022-08-05T17:07:42;20.30;99.90
22442;DHT22;11388;54.456;9.752;2022-08-05T17:10:11;20.20;99.90
22442;DHT22;11388;54.456;9.752;2022-08-05T17:12:36;19.80;99.90
22442;DHT22;11388;54.456;9.752;2022-08-05T17:15:03;19.40;99.90
22442;DHT22;11388;54.456;9.752;2022-08-05T17:17:38;19.30;99.90
22442;DHT22;11388;54.456;9.752;2022-08-05T17:20:06;19.10;99.90
22442;DHT22;11388;54.456;9.752;2022-08-05T17:22:33;18.70;99.90
22442;DHT22;11388;54.456;9.752;2022-08-05T17:24:59;18.40;99.90
22442;DHT22;11388;54.456;9.752;2022-08-05T17:27:28;18.30;99.90
22442;DHT22;11388;54.456;9.752;2022-08-05T17:29:55;18.20;99.90
22442;DHT22;11388;54.456;9.752;2022-08-05T17:32:26;18.20;99.90
22442;DHT22;11388;54.456;9.752;2022-08-05T17:34:54;18.10;99.90
22442;DHT22;11388;54.456;9.752;2022-08-05T17:37:20;18.00;99.90
22442;DHT22;11388;54.456;9.752;2022-08-05T17:39:46;18.00;99.90
22442;DHT22;11388;54.456;9.752;2022-08-05T17:42:15;17.90;99.90
22442;DHT22;11388;54.456;9.752;2022-08-05T17:44:43;17.80;99.90
22442;DHT22;11388;54.456;9.752;2022-08-05T17:47:09;17.40;99.90
22442;DHT22;11388;54.456;9.752;2022-08-05T17:49:35;17.40;99.90
22442;DHT22;11388;54.456;9.752;2022-08-05T17:52:01;17.60;99.90
22442;DHT22;11388;54.456;9.752;2022-08-05T17:54:29;17.70;99.90
22442;DHT22;11388;54.456;9.752;2022-08-05T17:56:58;18.00;99.90
22442;DHT22;11388;54.456;9.752;2022-08-05T17:59:24;18.00;99.90
22442;DHT22;11388;54.456;9.752;2022-08-05T18:01:50;17.80;99.90
22442;DHT22;11388;54.456;9.752;2022-08-05T18:04:19;17.80;99.90
22442;DHT22;11388;54.456;9.752;2022-08-05T18:06:56;17.80;99.90
22442;DHT22;11388;54.456;9.752;2022-08-05T18:09:24;17.80;99.90
22442;DHT22;11388;54.456;9.752;2022-08-05T18:12:04;17.90;99.90
22442;DHT22;11388;54.456;9.752;2022-08-05T18:14:50;18.00;99.90